DAE128 SCEL-SCIP
Flight info
| Callsign | DAE128 |
|---|---|
| Flight time | 5h 9m |
| Altitude | 36000 |
| Route | DGO6 DGO UL348 TOGUP/N0475F380 UL348 ASALA ASALA2A |
| Aircraft | B77L/H-SDE1E2E3FGHIJ2J3J4J5M1RWXY/LB1D1 |
Departure
| Time | 2026-04-22 10:10 |
|---|---|
| Airport | Comodoro Arturo Merino Benítez International Airport (SCEL) |
Arrival
| Time | 2026-04-22 15:19 |
|---|---|
| Airport | Mataveri International Airport (SCIP) |
| Time | Latitude | Longitude | Altitude | Speed | Heading |
|---|---|---|---|---|---|
| 2026-04-22 09:42 | -33.40657 | -70.78908 | 1777 ft | 0 kts | 270° |
| 2026-04-22 09:58 | -33.40657 | -70.78895 | 1566 ft | 4 kts | 270° |
| 2026-04-22 09:58 | -33.40657 | -70.78866 | 1566 ft | 3 kts | 271° |
| 2026-04-22 09:59 | -33.40664 | -70.78840 | 1566 ft | 4 kts | 328° |
| 2026-04-22 09:59 | -33.40688 | -70.78830 | 1566 ft | 4 kts | 355° |
| 2026-04-22 09:59 | -33.40694 | -70.78830 | 1566 ft | 0 kts | 357° |
| 2026-04-22 10:01 | -33.40668 | -70.78832 | 1566 ft | 7 kts | 357° |
| 2026-04-22 10:01 | -33.40588 | -70.78836 | 1566 ft | 16 kts | 357° |
| 2026-04-22 10:01 | -33.40441 | -70.78844 | 1566 ft | 26 kts | 358° |
| 2026-04-22 10:01 | -33.40251 | -70.78854 | 1565 ft | 28 kts | 358° |
| 2026-04-22 10:02 | -33.40051 | -70.78861 | 1565 ft | 28 kts | 357° |
| 2026-04-22 10:02 | -33.39854 | -70.78874 | 1564 ft | 28 kts | 358° |
| 2026-04-22 10:02 | -33.39657 | -70.78885 | 1564 ft | 28 kts | 358° |
| 2026-04-22 10:02 | -33.39459 | -70.78896 | 1563 ft | 29 kts | 356° |
| 2026-04-22 10:03 | -33.39325 | -70.78911 | 1563 ft | 11 kts | 328° |
| 2026-04-22 10:03 | -33.39310 | -70.79006 | 1563 ft | 13 kts | 268° |
| 2026-04-22 10:03 | -33.39315 | -70.79125 | 1563 ft | 16 kts | 268° |
| 2026-04-22 10:03 | -33.39319 | -70.79264 | 1563 ft | 18 kts | 267° |
| 2026-04-22 10:04 | -33.39326 | -70.79421 | 1563 ft | 20 kts | 267° |
| 2026-04-22 10:04 | -33.39333 | -70.79594 | 1564 ft | 22 kts | 267° |
| 2026-04-22 10:04 | -33.39341 | -70.79777 | 1564 ft | 22 kts | 267° |
| 2026-04-22 10:04 | -33.39347 | -70.79931 | 1564 ft | 15 kts | 266° |
| 2026-04-22 10:05 | -33.39322 | -70.80046 | 1564 ft | 16 kts | 330° |
| 2026-04-22 10:05 | -33.39205 | -70.80061 | 1564 ft | 18 kts | 357° |
| 2026-04-22 10:05 | -33.39071 | -70.80068 | 1564 ft | 20 kts | 357° |
| 2026-04-22 10:05 | -33.38924 | -70.80076 | 1564 ft | 22 kts | 358° |
| 2026-04-22 10:06 | -33.38762 | -70.80085 | 1563 ft | 24 kts | 357° |
| 2026-04-22 10:06 | -33.38592 | -70.80095 | 1563 ft | 24 kts | 357° |
| 2026-04-22 10:06 | -33.38422 | -70.80103 | 1562 ft | 24 kts | 358° |
| 2026-04-22 10:06 | -33.38246 | -70.80112 | 1561 ft | 26 kts | 357° |
| 2026-04-22 10:07 | -33.38058 | -70.80123 | 1561 ft | 28 kts | 358° |
| 2026-04-22 10:07 | -33.37859 | -70.80133 | 1560 ft | 29 kts | 357° |
| 2026-04-22 10:07 | -33.37653 | -70.80144 | 1560 ft | 30 kts | 357° |
| 2026-04-22 10:07 | -33.37451 | -70.80155 | 1560 ft | 27 kts | 358° |
| 2026-04-22 10:08 | -33.37261 | -70.80165 | 1560 ft | 27 kts | 357° |
| 2026-04-22 10:08 | -33.37114 | -70.80230 | 1559 ft | 23 kts | 295° |
| 2026-04-22 10:08 | -33.37179 | -70.80369 | 1560 ft | 23 kts | 189° |
| 2026-04-22 10:08 | -33.37294 | -70.80368 | 1559 ft | 18 kts | 178° |
| 2026-04-22 10:09 | -33.37515 | -70.80356 | 1561 ft | 50 kts | 177° |
| 2026-04-22 10:09 | -33.38119 | -70.80324 | 1560 ft | 122 kts | 177° |
| 2026-04-22 10:09 | -33.39168 | -70.80268 | 1565 ft | 177 kts | 177° |
| 2026-04-22 10:09 | -33.40509 | -70.80182 | 1835 ft | 197 kts | 177° |
| 2026-04-22 10:10 | -33.41824 | -70.80102 | 2720 ft | 186 kts | 176° |
| 2026-04-22 10:10 | -33.43139 | -70.80024 | 3380 ft | 194 kts | 176° |
| 2026-04-22 10:10 | -33.44553 | -70.79955 | 3656 ft | 217 kts | 177° |
| 2026-04-22 10:10 | -33.46175 | -70.79877 | 3944 ft | 244 kts | 176° |
| 2026-04-22 10:11 | -33.47931 | -70.79780 | 4508 ft | 258 kts | 176° |
| 2026-04-22 10:11 | -33.49709 | -70.79679 | 5401 ft | 257 kts | 176° |
| 2026-04-22 10:11 | -33.51489 | -70.79580 | 6273 ft | 261 kts | 177° |
| 2026-04-22 10:11 | -33.53384 | -70.79480 | 6673 ft | 279 kts | 179° |
| 2026-04-22 10:12 | -33.55292 | -70.79922 | 7241 ft | 285 kts | 211° |
| 2026-04-22 10:12 | -33.56701 | -70.81529 | 8067 ft | 280 kts | 244° |
| 2026-04-22 10:12 | -33.57167 | -70.83737 | 8871 ft | 275 kts | 275° |
| 2026-04-22 10:12 | -33.56712 | -70.85935 | 9584 ft | 273 kts | 294° |
| 2026-04-22 10:13 | -33.56066 | -70.88104 | 10273 ft | 281 kts | 286° |
| 2026-04-22 10:13 | -33.55776 | -70.90503 | 10602 ft | 304 kts | 272° |
| 2026-04-22 10:13 | -33.55899 | -70.93147 | 10807 ft | 332 kts | 264° |
| 2026-04-22 10:13 | -33.56123 | -70.95012 | 10920 ft | 350 kts | 262° |
| 2026-04-22 10:14 | -33.56560 | -70.97957 | 11447 ft | 365 kts | 261° |
| 2026-04-22 10:14 | -33.57034 | -71.00984 | 12243 ft | 373 kts | 261° |
| 2026-04-22 10:14 | -33.57496 | -71.04053 | 13279 ft | 375 kts | 261° |
| 2026-04-22 10:14 | -33.57949 | -71.07143 | 14318 ft | 378 kts | 261° |
| 2026-04-22 10:15 | -33.58401 | -71.10257 | 15262 ft | 380 kts | 261° |
| 2026-04-22 10:15 | -33.58854 | -71.13387 | 16221 ft | 382 kts | 261° |
| 2026-04-22 10:15 | -33.59308 | -71.16529 | 17161 ft | 384 kts | 261° |
| 2026-04-22 10:15 | -33.59765 | -71.19700 | 18078 ft | 387 kts | 261° |
| 2026-04-22 10:16 | -33.60224 | -71.22895 | 18920 ft | 390 kts | 262° |
| 2026-04-22 10:16 | -33.60686 | -71.26108 | 19743 ft | 391 kts | 262° |
| 2026-04-22 10:16 | -33.61147 | -71.29323 | 20579 ft | 392 kts | 262° |
| 2026-04-22 10:16 | -33.61610 | -71.32554 | 21399 ft | 394 kts | 262° |
| 2026-04-22 10:17 | -33.62074 | -71.35803 | 22152 ft | 396 kts | 262° |
| 2026-04-22 10:17 | -33.62540 | -71.39070 | 22955 ft | 398 kts | 263° |
| 2026-04-22 10:17 | -33.63007 | -71.42351 | 23760 ft | 400 kts | 263° |
| 2026-04-22 10:17 | -33.63475 | -71.45648 | 24406 ft | 402 kts | 263° |
| 2026-04-22 10:18 | -33.63945 | -71.48965 | 25027 ft | 404 kts | 263° |
| 2026-04-22 10:18 | -33.64424 | -71.52349 | 25650 ft | 407 kts | 263° |
| 2026-04-22 10:18 | -33.64892 | -71.55660 | 26257 ft | 409 kts | 263° |
| 2026-04-22 10:18 | -33.65368 | -71.59039 | 26844 ft | 412 kts | 263° |
| 2026-04-22 10:19 | -33.65808 | -71.62444 | 27402 ft | 413 kts | 266° |
| 2026-04-22 10:19 | -33.66002 | -71.65886 | 27956 ft | 414 kts | 270° |
| 2026-04-22 10:19 | -33.66050 | -71.69354 | 28507 ft | 416 kts | 272° |
| 2026-04-22 10:19 | -33.66053 | -71.72837 | 29049 ft | 419 kts | 272° |
| 2026-04-22 10:20 | -33.66056 | -71.76340 | 29556 ft | 421 kts | 272° |
| 2026-04-22 10:20 | -33.66074 | -71.79860 | 30030 ft | 423 kts | 271° |
| 2026-04-22 10:20 | -33.66108 | -71.83405 | 30441 ft | 426 kts | 271° |
| 2026-04-22 10:20 | -33.66155 | -71.86969 | 30807 ft | 428 kts | 271° |
| 2026-04-22 10:21 | -33.66209 | -71.90532 | 31265 ft | 427 kts | 271° |
| 2026-04-22 10:21 | -33.66267 | -71.94085 | 31778 ft | 425 kts | 271° |
| 2026-04-22 10:21 | -33.66325 | -71.97623 | 32263 ft | 423 kts | 271° |
| 2026-04-22 10:21 | -33.66383 | -72.01152 | 32721 ft | 423 kts | 271° |
| 2026-04-22 10:22 | -33.66438 | -72.04674 | 33162 ft | 422 kts | 272° |
| 2026-04-22 10:22 | -33.66492 | -72.08192 | 33579 ft | 421 kts | 272° |
| 2026-04-22 10:22 | -33.66545 | -72.11710 | 33911 ft | 423 kts | 272° |
| 2026-04-22 10:22 | -33.66596 | -72.15236 | 34299 ft | 422 kts | 272° |
| 2026-04-22 10:23 | -33.66647 | -72.18751 | 34706 ft | 420 kts | 272° |
| 2026-04-22 10:23 | -33.66697 | -72.22245 | 35133 ft | 417 kts | 272° |
| 2026-04-22 10:23 | -33.66745 | -72.25718 | 35529 ft | 416 kts | 272° |
| 2026-04-22 10:23 | -33.66792 | -72.29190 | 35804 ft | 416 kts | 272° |
| 2026-04-22 10:24 | -33.66838 | -72.32667 | 36100 ft | 417 kts | 272° |
| 2026-04-22 10:24 | -33.66882 | -72.36168 | 36147 ft | 421 kts | 272° |
| 2026-04-22 10:24 | -33.66970 | -72.43185 | 36204 ft | 418 kts | 272° |
| 2026-04-22 10:25 | -33.67055 | -72.50117 | 36206 ft | 413 kts | 272° |
| 2026-04-22 10:25 | -33.67132 | -72.56962 | 36215 ft | 412 kts | 272° |
| 2026-04-22 10:26 | -33.67206 | -72.63847 | 36222 ft | 413 kts | 272° |
| 2026-04-22 10:26 | -33.67278 | -72.70745 | 36225 ft | 414 kts | 272° |
| 2026-04-22 10:27 | -33.67346 | -72.77664 | 36220 ft | 415 kts | 272° |
| 2026-04-22 10:27 | -33.67410 | -72.84649 | 36225 ft | 416 kts | 272° |
| 2026-04-22 10:28 | -33.67453 | -72.91598 | 36225 ft | 417 kts | 273° |
| 2026-04-22 10:28 | -33.67492 | -72.98518 | 36220 ft | 418 kts | 272° |
| 2026-04-22 10:29 | -33.67523 | -73.05496 | 36224 ft | 418 kts | 272° |
| 2026-04-22 10:29 | -33.67545 | -73.12474 | 36232 ft | 418 kts | 272° |
| 2026-04-22 10:30 | -33.67563 | -73.19457 | 36238 ft | 418 kts | 272° |
| 2026-04-22 10:30 | -33.67577 | -73.26438 | 36234 ft | 418 kts | 273° |
| 2026-04-22 10:31 | -33.67589 | -73.33417 | 36236 ft | 418 kts | 272° |
| 2026-04-22 10:31 | -33.67596 | -73.40386 | 36243 ft | 417 kts | 272° |
| 2026-04-22 10:32 | -33.67600 | -73.47354 | 36245 ft | 417 kts | 272° |
| 2026-04-22 10:32 | -33.67600 | -73.54317 | 36244 ft | 417 kts | 272° |
| 2026-04-22 10:33 | -33.67596 | -73.61272 | 36242 ft | 417 kts | 273° |
| 2026-04-22 10:33 | -33.67588 | -73.68228 | 36261 ft | 416 kts | 273° |
| 2026-04-22 10:34 | -33.67576 | -73.75179 | 36256 ft | 416 kts | 273° |
| 2026-04-22 10:34 | -33.67560 | -73.82131 | 36251 ft | 416 kts | 273° |
| 2026-04-22 10:35 | -33.67540 | -73.89082 | 36257 ft | 416 kts | 273° |
| 2026-04-22 10:35 | -33.67516 | -73.96028 | 36215 ft | 416 kts | 273° |
| 2026-04-22 10:36 | -33.67489 | -74.02970 | 36246 ft | 416 kts | 273° |
| 2026-04-22 10:36 | -33.67457 | -74.09922 | 36257 ft | 417 kts | 273° |
| 2026-04-22 10:37 | -33.67403 | -74.20321 | 36249 ft | 418 kts | 273° |
| 2026-04-22 10:38 | -33.67362 | -74.27296 | 36265 ft | 418 kts | 273° |
| 2026-04-22 10:38 | -33.67317 | -74.34279 | 36254 ft | 418 kts | 273° |
| 2026-04-22 10:39 | -33.67267 | -74.41267 | 36265 ft | 419 kts | 273° |
| 2026-04-22 10:39 | -33.67214 | -74.48266 | 36267 ft | 419 kts | 273° |
| 2026-04-22 10:40 | -33.67157 | -74.55263 | 36268 ft | 419 kts | 273° |
| 2026-04-22 10:40 | -33.67096 | -74.62256 | 36262 ft | 419 kts | 273° |
| 2026-04-22 10:41 | -33.67031 | -74.69255 | 36264 ft | 419 kts | 273° |
| 2026-04-22 10:41 | -33.66962 | -74.76245 | 36270 ft | 419 kts | 273° |
| 2026-04-22 10:42 | -33.66890 | -74.83228 | 36268 ft | 418 kts | 273° |
| 2026-04-22 10:42 | -33.66814 | -74.90215 | 36272 ft | 418 kts | 273° |
| 2026-04-22 10:43 | -33.66734 | -74.97197 | 36269 ft | 418 kts | 273° |
| 2026-04-22 10:43 | -33.66426 | -75.04147 | 36267 ft | 416 kts | 277° |
| 2026-04-22 10:44 | -33.65903 | -75.11077 | 36286 ft | 418 kts | 277° |
| 2026-04-22 10:44 | -33.65375 | -75.18036 | 36277 ft | 419 kts | 277° |
| 2026-04-22 10:45 | -33.64848 | -75.25020 | 36278 ft | 421 kts | 277° |
| 2026-04-22 10:45 | -33.64321 | -75.32019 | 36274 ft | 422 kts | 277° |
| 2026-04-22 10:46 | -33.63789 | -75.39037 | 36275 ft | 422 kts | 277° |
| 2026-04-22 10:46 | -33.63253 | -75.46062 | 36281 ft | 423 kts | 277° |
| 2026-04-22 10:47 | -33.62711 | -75.53108 | 36281 ft | 424 kts | 277° |
| 2026-04-22 10:47 | -33.62164 | -75.60164 | 36264 ft | 424 kts | 277° |
| 2026-04-22 10:48 | -33.61618 | -75.67166 | 36275 ft | 424 kts | 277° |
| 2026-04-22 10:48 | -33.61064 | -75.74211 | 36278 ft | 424 kts | 277° |
| 2026-04-22 10:49 | -33.60505 | -75.81252 | 36286 ft | 424 kts | 277° |
| 2026-04-22 10:49 | -33.59943 | -75.88300 | 36279 ft | 425 kts | 277° |
| 2026-04-22 10:50 | -33.59375 | -75.95366 | 36279 ft | 425 kts | 277° |
| 2026-04-22 10:50 | -33.58803 | -76.02429 | 36281 ft | 426 kts | 277° |
| 2026-04-22 10:51 | -33.58227 | -76.09492 | 36283 ft | 426 kts | 277° |
| 2026-04-22 10:51 | -33.57647 | -76.16559 | 36277 ft | 426 kts | 277° |
| 2026-04-22 10:52 | -33.57061 | -76.23639 | 36283 ft | 427 kts | 277° |
| 2026-04-22 10:52 | -33.56471 | -76.30723 | 36280 ft | 427 kts | 277° |
| 2026-04-22 10:53 | -33.55876 | -76.37819 | 36287 ft | 428 kts | 277° |
| 2026-04-22 10:53 | -33.55277 | -76.44918 | 36286 ft | 428 kts | 277° |
| 2026-04-22 10:54 | -33.54677 | -76.51972 | 36289 ft | 428 kts | 277° |
| 2026-04-22 10:54 | -33.54064 | -76.59130 | 36286 ft | 429 kts | 277° |
| 2026-04-22 10:55 | -33.53454 | -76.66201 | 36287 ft | 429 kts | 277° |
| 2026-04-22 10:55 | -33.52837 | -76.73322 | 36286 ft | 430 kts | 277° |
| 2026-04-22 10:56 | -33.52214 | -76.80450 | 36291 ft | 430 kts | 277° |
| 2026-04-22 10:56 | -33.51587 | -76.87578 | 36290 ft | 430 kts | 277° |
| 2026-04-22 10:57 | -33.50955 | -76.94710 | 36284 ft | 430 kts | 277° |
| 2026-04-22 10:57 | -33.50320 | -77.01839 | 36289 ft | 431 kts | 277° |
| 2026-04-22 10:58 | -33.49680 | -77.08975 | 36295 ft | 431 kts | 277° |
| 2026-04-22 10:58 | -33.49035 | -77.16116 | 36290 ft | 431 kts | 277° |
| 2026-04-22 10:59 | -33.48386 | -77.23259 | 36295 ft | 432 kts | 277° |
| 2026-04-22 10:59 | -33.47732 | -77.30410 | 36294 ft | 432 kts | 277° |
| 2026-04-22 11:00 | -33.47072 | -77.37572 | 36294 ft | 433 kts | 277° |
| 2026-04-22 11:00 | -33.46520 | -77.43531 | 36301 ft | 433 kts | 277° |
| 2026-04-22 11:01 | -33.45853 | -77.50701 | 36294 ft | 433 kts | 277° |
| 2026-04-22 11:01 | -33.45180 | -77.57878 | 36296 ft | 434 kts | 277° |
| 2026-04-22 11:02 | -33.44502 | -77.65061 | 36297 ft | 435 kts | 277° |
| 2026-04-22 11:02 | -33.43820 | -77.72257 | 36294 ft | 435 kts | 277° |
| 2026-04-22 11:03 | -33.43131 | -77.79469 | 36294 ft | 436 kts | 277° |
| 2026-04-22 11:03 | -33.42438 | -77.86680 | 36293 ft | 436 kts | 277° |
| 2026-04-22 11:04 | -33.41740 | -77.93899 | 36296 ft | 437 kts | 277° |
| 2026-04-22 11:04 | -33.41037 | -78.01125 | 36296 ft | 437 kts | 277° |
| 2026-04-22 11:05 | -33.40330 | -78.08354 | 36299 ft | 438 kts | 277° |
| 2026-04-22 11:05 | -33.39617 | -78.15589 | 36301 ft | 438 kts | 277° |
| 2026-04-22 11:06 | -33.38905 | -78.22782 | 36302 ft | 438 kts | 277° |
| 2026-04-22 11:06 | -33.38183 | -78.30021 | 36305 ft | 438 kts | 277° |
| 2026-04-22 11:07 | -33.37457 | -78.37260 | 36306 ft | 438 kts | 277° |
| 2026-04-22 11:07 | -33.36727 | -78.44498 | 36307 ft | 438 kts | 277° |
| 2026-04-22 11:08 | -33.35993 | -78.51731 | 36309 ft | 438 kts | 277° |
| 2026-04-22 11:08 | -33.35255 | -78.58961 | 36310 ft | 438 kts | 277° |
| 2026-04-22 11:09 | -33.34514 | -78.66186 | 36309 ft | 438 kts | 277° |
| 2026-04-22 11:09 | -33.33768 | -78.73407 | 36306 ft | 438 kts | 277° |
| 2026-04-22 11:10 | -33.33017 | -78.80644 | 36311 ft | 439 kts | 277° |
| 2026-04-22 11:10 | -33.32261 | -78.87881 | 36310 ft | 439 kts | 277° |
| 2026-04-22 11:11 | -33.31500 | -78.95127 | 36310 ft | 439 kts | 277° |
| 2026-04-22 11:11 | -33.30734 | -79.02377 | 36312 ft | 440 kts | 277° |
| 2026-04-22 11:12 | -33.29963 | -79.09630 | 36311 ft | 440 kts | 277° |
| 2026-04-22 11:12 | -33.29187 | -79.16900 | 36315 ft | 441 kts | 277° |
| 2026-04-22 11:13 | -33.28405 | -79.24176 | 36315 ft | 442 kts | 277° |
| 2026-04-22 11:13 | -33.27619 | -79.31453 | 36316 ft | 442 kts | 277° |
| 2026-04-22 11:14 | -33.26826 | -79.38747 | 36318 ft | 442 kts | 277° |
| 2026-04-22 11:14 | -33.26030 | -79.46034 | 36312 ft | 443 kts | 277° |
| 2026-04-22 11:15 | -33.25229 | -79.53326 | 36311 ft | 443 kts | 277° |
| 2026-04-22 11:15 | -33.24424 | -79.60616 | 36310 ft | 443 kts | 277° |
| 2026-04-22 11:16 | -33.23615 | -79.67904 | 36325 ft | 443 kts | 277° |
| 2026-04-22 11:16 | -33.22801 | -79.75190 | 36319 ft | 443 kts | 277° |
| 2026-04-22 11:17 | -33.21983 | -79.82476 | 36319 ft | 443 kts | 277° |
| 2026-04-22 11:17 | -33.21160 | -79.89772 | 36322 ft | 443 kts | 277° |
| 2026-04-22 11:18 | -33.20334 | -79.97069 | 36326 ft | 444 kts | 277° |
| 2026-04-22 11:18 | -33.19572 | -80.04383 | 36332 ft | 444 kts | 275° |
| 2026-04-22 11:19 | -33.19028 | -80.11727 | 36323 ft | 444 kts | 274° |
| 2026-04-22 11:19 | -33.18509 | -80.19028 | 36328 ft | 445 kts | 274° |
| 2026-04-22 11:20 | -33.17957 | -80.26380 | 36329 ft | 445 kts | 275° |
| 2026-04-22 11:20 | -33.17383 | -80.33735 | 36333 ft | 445 kts | 275° |
| 2026-04-22 11:21 | -33.16799 | -80.41095 | 36326 ft | 445 kts | 275° |
| 2026-04-22 11:21 | -33.16210 | -80.48456 | 36333 ft | 446 kts | 275° |
| 2026-04-22 11:22 | -33.15618 | -80.55817 | 36318 ft | 446 kts | 275° |
| 2026-04-22 11:22 | -33.15021 | -80.63178 | 36336 ft | 446 kts | 275° |
| 2026-04-22 11:23 | -33.14420 | -80.70547 | 36329 ft | 446 kts | 275° |
| 2026-04-22 11:23 | -33.13814 | -80.77917 | 36332 ft | 447 kts | 275° |
| 2026-04-22 11:24 | -33.13203 | -80.85294 | 36332 ft | 447 kts | 275° |
| 2026-04-22 11:24 | -33.12587 | -80.92672 | 36336 ft | 447 kts | 275° |
| 2026-04-22 11:25 | -33.11967 | -81.00050 | 36330 ft | 447 kts | 275° |
| 2026-04-22 11:25 | -33.11342 | -81.07431 | 36332 ft | 448 kts | 275° |
| 2026-04-22 11:26 | -33.10717 | -81.14774 | 36310 ft | 448 kts | 275° |
| 2026-04-22 11:26 | -33.10083 | -81.22154 | 36331 ft | 447 kts | 275° |
| 2026-04-22 11:27 | -33.09445 | -81.29532 | 36339 ft | 448 kts | 275° |
| 2026-04-22 11:27 | -33.08802 | -81.36918 | 36343 ft | 448 kts | 275° |
| 2026-04-22 11:28 | -33.08155 | -81.44310 | 36342 ft | 448 kts | 275° |
| 2026-04-22 11:28 | -33.07502 | -81.51700 | 36342 ft | 448 kts | 275° |
| 2026-04-22 11:29 | -33.06846 | -81.59093 | 36336 ft | 448 kts | 275° |
| 2026-04-22 11:29 | -33.06184 | -81.66485 | 36329 ft | 448 kts | 275° |
| 2026-04-22 11:30 | -33.05519 | -81.73878 | 36348 ft | 449 kts | 275° |
| 2026-04-22 11:30 | -33.04848 | -81.81270 | 36334 ft | 449 kts | 275° |
| 2026-04-22 11:31 | -33.04173 | -81.88672 | 36336 ft | 449 kts | 275° |
| 2026-04-22 11:31 | -33.03493 | -81.96072 | 36350 ft | 449 kts | 275° |
| 2026-04-22 11:32 | -33.02809 | -82.03472 | 36347 ft | 449 kts | 275° |
| 2026-04-22 11:32 | -33.02120 | -82.10870 | 36347 ft | 449 kts | 275° |
| 2026-04-22 11:33 | -33.01427 | -82.18271 | 36347 ft | 449 kts | 276° |
| 2026-04-22 11:33 | -33.00729 | -82.25672 | 36337 ft | 449 kts | 276° |
| 2026-04-22 11:34 | -33.00028 | -82.33067 | 36335 ft | 449 kts | 276° |
| 2026-04-22 11:34 | -32.99322 | -82.40460 | 36348 ft | 449 kts | 276° |
| 2026-04-22 11:35 | -32.98611 | -82.47857 | 36353 ft | 449 kts | 276° |
| 2026-04-22 11:35 | -32.97895 | -82.55257 | 36340 ft | 450 kts | 276° |
| 2026-04-22 11:36 | -32.97175 | -82.62658 | 36352 ft | 450 kts | 276° |
| 2026-04-22 11:36 | -32.96450 | -82.70062 | 36353 ft | 450 kts | 276° |
| 2026-04-22 11:37 | -32.95725 | -82.77418 | 36359 ft | 450 kts | 276° |
| 2026-04-22 11:37 | -32.94991 | -82.84827 | 36346 ft | 451 kts | 276° |
| 2026-04-22 11:38 | -32.94252 | -82.92236 | 36356 ft | 451 kts | 276° |
| 2026-04-22 11:38 | -32.93134 | -83.03362 | 36356 ft | 452 kts | 276° |
| 2026-04-22 11:39 | -32.92382 | -83.10789 | 36357 ft | 452 kts | 276° |
| 2026-04-22 11:39 | -32.91625 | -83.18218 | 36349 ft | 452 kts | 276° |
| 2026-04-22 11:40 | -32.90864 | -83.25652 | 36358 ft | 453 kts | 276° |
| 2026-04-22 11:40 | -32.90097 | -83.33090 | 36355 ft | 453 kts | 276° |
| 2026-04-22 11:41 | -32.89326 | -83.40528 | 36356 ft | 453 kts | 276° |
| 2026-04-22 11:41 | -32.88550 | -83.47969 | 36360 ft | 453 kts | 276° |
| 2026-04-22 11:42 | -32.87769 | -83.55407 | 36353 ft | 453 kts | 276° |
| 2026-04-22 11:42 | -32.86984 | -83.62849 | 36359 ft | 453 kts | 276° |
| 2026-04-22 11:43 | -32.86194 | -83.70290 | 36359 ft | 454 kts | 276° |
| 2026-04-22 11:43 | -32.85399 | -83.77737 | 36359 ft | 454 kts | 276° |
| 2026-04-22 11:44 | -32.84600 | -83.85183 | 36358 ft | 454 kts | 276° |
| 2026-04-22 11:44 | -32.83796 | -83.92634 | 36359 ft | 454 kts | 276° |
| 2026-04-22 11:45 | -32.82987 | -84.00086 | 36359 ft | 455 kts | 276° |
| 2026-04-22 11:45 | -32.82173 | -84.07540 | 36362 ft | 455 kts | 276° |
| 2026-04-22 11:46 | -32.81354 | -84.14997 | 36363 ft | 455 kts | 276° |
| 2026-04-22 11:46 | -32.80530 | -84.22460 | 36361 ft | 455 kts | 276° |
| 2026-04-22 11:47 | -32.79702 | -84.29915 | 36355 ft | 455 kts | 276° |
| 2026-04-22 11:47 | -32.79010 | -84.36118 | 36358 ft | 455 kts | 276° |
| 2026-04-22 11:48 | -32.78037 | -84.44795 | 36363 ft | 456 kts | 276° |
| 2026-04-22 11:48 | -32.77195 | -84.52255 | 36365 ft | 456 kts | 277° |
| 2026-04-22 11:49 | -32.76485 | -84.58513 | 36356 ft | 456 kts | 277° |
| 2026-04-22 11:49 | -32.75634 | -84.65976 | 36362 ft | 456 kts | 277° |
| 2026-04-22 11:50 | -32.74779 | -84.73438 | 36370 ft | 456 kts | 277° |
| 2026-04-22 11:50 | -32.73918 | -84.80913 | 36370 ft | 457 kts | 277° |
| 2026-04-22 11:51 | -32.73053 | -84.88389 | 36370 ft | 457 kts | 277° |
| 2026-04-22 11:51 | -32.72183 | -84.95871 | 36370 ft | 457 kts | 277° |
| 2026-04-22 11:52 | -32.71308 | -85.03350 | 36369 ft | 457 kts | 277° |
| 2026-04-22 11:52 | -32.70434 | -85.10831 | 36365 ft | 458 kts | 277° |
| 2026-04-22 11:53 | -32.69556 | -85.18316 | 36367 ft | 458 kts | 277° |
| 2026-04-22 11:53 | -32.68674 | -85.25803 | 36369 ft | 458 kts | 277° |
| 2026-04-22 11:54 | -32.67787 | -85.33290 | 36370 ft | 458 kts | 277° |
| 2026-04-22 11:54 | -32.66901 | -85.40725 | 36372 ft | 458 kts | 277° |
| 2026-04-22 11:55 | -32.66004 | -85.48212 | 36363 ft | 458 kts | 277° |
| 2026-04-22 11:55 | -32.65104 | -85.55695 | 36369 ft | 458 kts | 277° |
| 2026-04-22 11:56 | -32.64198 | -85.63184 | 36372 ft | 459 kts | 277° |
| 2026-04-22 11:56 | -32.63286 | -85.70684 | 36453 ft | 461 kts | 277° |
| 2026-04-22 11:57 | -32.62826 | -85.74451 | 36807 ft | 460 kts | 277° |
| 2026-04-22 11:57 | -32.62368 | -85.78193 | 37290 ft | 457 kts | 277° |
| 2026-04-22 11:57 | -32.61912 | -85.81902 | 37780 ft | 453 kts | 277° |
| 2026-04-22 11:57 | -32.61459 | -85.85590 | 38236 ft | 450 kts | 277° |
| 2026-04-22 11:58 | -32.61005 | -85.89269 | 38388 ft | 453 kts | 277° |
| 2026-04-22 11:58 | -32.60547 | -85.92978 | 38393 ft | 454 kts | 277° |
| 2026-04-22 11:58 | -32.59629 | -86.00376 | 38368 ft | 451 kts | 277° |
| 2026-04-22 11:59 | -32.58715 | -86.07707 | 38369 ft | 448 kts | 277° |
| 2026-04-22 11:59 | -32.57801 | -86.15004 | 38372 ft | 447 kts | 277° |
| 2026-04-22 12:00 | -32.56884 | -86.22287 | 38374 ft | 447 kts | 277° |
| 2026-04-22 12:00 | -32.55963 | -86.29570 | 38373 ft | 447 kts | 277° |
| 2026-04-22 12:01 | -32.55038 | -86.36855 | 38374 ft | 447 kts | 277° |
| 2026-04-22 12:01 | -32.54106 | -86.44150 | 38368 ft | 448 kts | 277° |
| 2026-04-22 12:02 | -32.53168 | -86.51459 | 38371 ft | 449 kts | 277° |
| 2026-04-22 12:02 | -32.52226 | -86.58773 | 38374 ft | 449 kts | 277° |
| 2026-04-22 12:03 | -32.51277 | -86.66097 | 38371 ft | 450 kts | 277° |
| 2026-04-22 12:03 | -32.50324 | -86.73420 | 38376 ft | 450 kts | 277° |
| 2026-04-22 12:04 | -32.49366 | -86.80749 | 38371 ft | 450 kts | 277° |
| 2026-04-22 12:04 | -32.48404 | -86.88079 | 38375 ft | 450 kts | 278° |
| 2026-04-22 12:05 | -32.47444 | -86.95356 | 38375 ft | 450 kts | 277° |
| 2026-04-22 12:05 | -32.46473 | -87.02678 | 38373 ft | 450 kts | 277° |
| 2026-04-22 12:06 | -32.45498 | -87.10003 | 38376 ft | 450 kts | 277° |
| 2026-04-22 12:06 | -32.44519 | -87.17325 | 38375 ft | 450 kts | 277° |
| 2026-04-22 12:07 | -32.43536 | -87.24642 | 38368 ft | 450 kts | 277° |
| 2026-04-22 12:07 | -32.42548 | -87.31960 | 38375 ft | 450 kts | 278° |
| 2026-04-22 12:08 | -32.41556 | -87.39271 | 38376 ft | 450 kts | 277° |
| 2026-04-22 12:08 | -32.40562 | -87.46576 | 38374 ft | 450 kts | 277° |
| 2026-04-22 12:09 | -32.39563 | -87.53880 | 38372 ft | 450 kts | 277° |
| 2026-04-22 12:09 | -32.38560 | -87.61180 | 38380 ft | 449 kts | 277° |
| 2026-04-22 12:10 | -32.37553 | -87.68476 | 38378 ft | 449 kts | 277° |
| 2026-04-22 12:10 | -32.36542 | -87.75771 | 38373 ft | 449 kts | 277° |
| 2026-04-22 12:11 | -32.35527 | -87.83063 | 38375 ft | 449 kts | 277° |
| 2026-04-22 12:11 | -32.34508 | -87.90346 | 38372 ft | 449 kts | 277° |
| 2026-04-22 12:12 | -32.33485 | -87.97635 | 38375 ft | 449 kts | 277° |
| 2026-04-22 12:12 | -32.32458 | -88.04915 | 38366 ft | 448 kts | 277° |
| 2026-04-22 12:13 | -32.31428 | -88.12182 | 38373 ft | 448 kts | 277° |
| 2026-04-22 12:13 | -32.30396 | -88.19440 | 38374 ft | 447 kts | 277° |
| 2026-04-22 12:14 | -32.29362 | -88.26685 | 38374 ft | 447 kts | 277° |
| 2026-04-22 12:14 | -32.28322 | -88.33929 | 38374 ft | 447 kts | 277° |
| 2026-04-22 12:15 | -32.27280 | -88.41168 | 38377 ft | 447 kts | 277° |
| 2026-04-22 12:15 | -32.26232 | -88.48405 | 38370 ft | 447 kts | 277° |
| 2026-04-22 12:16 | -32.25182 | -88.55636 | 38369 ft | 447 kts | 277° |
| 2026-04-22 12:16 | -32.24128 | -88.62862 | 38372 ft | 446 kts | 277° |
| 2026-04-22 12:17 | -32.23070 | -88.70086 | 38389 ft | 446 kts | 277° |
| 2026-04-22 12:17 | -32.22009 | -88.77304 | 38378 ft | 446 kts | 277° |
| 2026-04-22 12:18 | -32.20942 | -88.84528 | 38375 ft | 446 kts | 277° |
| 2026-04-22 12:18 | -32.19872 | -88.91737 | 38384 ft | 446 kts | 277° |
| 2026-04-22 12:19 | -32.18800 | -88.98946 | 38375 ft | 446 kts | 277° |
| 2026-04-22 12:19 | -32.17723 | -89.06149 | 38378 ft | 445 kts | 277° |
| 2026-04-22 12:20 | -32.16643 | -89.13347 | 38373 ft | 445 kts | 277° |
| 2026-04-22 12:20 | -32.15559 | -89.20541 | 38371 ft | 445 kts | 277° |
| 2026-04-22 12:21 | -32.14470 | -89.27736 | 38379 ft | 445 kts | 276° |
| 2026-04-22 12:21 | -32.13379 | -89.34922 | 38371 ft | 445 kts | 276° |
| 2026-04-22 12:22 | -32.12285 | -89.42099 | 38379 ft | 444 kts | 276° |
| 2026-04-22 12:22 | -32.11186 | -89.49272 | 38375 ft | 444 kts | 276° |
| 2026-04-22 12:23 | -32.10085 | -89.56440 | 38374 ft | 444 kts | 276° |
| 2026-04-22 12:23 | -32.08980 | -89.63601 | 38371 ft | 444 kts | 276° |
| 2026-04-22 12:24 | -32.07872 | -89.70760 | 38371 ft | 444 kts | 276° |
| 2026-04-22 12:24 | -32.06759 | -89.77914 | 38368 ft | 443 kts | 276° |
| 2026-04-22 12:25 | -32.05652 | -89.85007 | 38374 ft | 443 kts | 276° |
| 2026-04-22 12:25 | -32.04536 | -89.92140 | 38377 ft | 442 kts | 276° |
| 2026-04-22 12:26 | -32.03415 | -89.99269 | 38377 ft | 442 kts | 276° |
| 2026-04-22 12:26 | -32.02298 | -90.06389 | 38378 ft | 441 kts | 276° |
| 2026-04-22 12:27 | -32.01188 | -90.13497 | 38374 ft | 441 kts | 276° |
| 2026-04-22 12:27 | -32.00075 | -90.20598 | 38374 ft | 440 kts | 276° |
| 2026-04-22 12:28 | -31.98958 | -90.27691 | 38377 ft | 440 kts | 276° |
| 2026-04-22 12:28 | -31.97837 | -90.34778 | 38375 ft | 440 kts | 276° |
| 2026-04-22 12:29 | -31.96714 | -90.41857 | 38370 ft | 439 kts | 275° |
| 2026-04-22 12:29 | -31.95588 | -90.48917 | 38369 ft | 438 kts | 275° |
| 2026-04-22 12:30 | -31.93896 | -90.59488 | 38376 ft | 437 kts | 275° |
| 2026-04-22 12:31 | -31.92766 | -90.66518 | 38370 ft | 437 kts | 275° |
| 2026-04-22 12:31 | -31.91633 | -90.73539 | 38376 ft | 437 kts | 275° |
| 2026-04-22 12:32 | -31.90496 | -90.80558 | 38360 ft | 436 kts | 275° |
| 2026-04-22 12:32 | -31.88980 | -90.89877 | 38368 ft | 435 kts | 275° |
| 2026-04-22 12:33 | -31.87837 | -90.96873 | 38365 ft | 435 kts | 275° |
| 2026-04-22 12:33 | -31.86692 | -91.03862 | 38365 ft | 435 kts | 275° |
| 2026-04-22 12:34 | -31.85542 | -91.10851 | 38368 ft | 435 kts | 275° |
| 2026-04-22 12:34 | -31.84389 | -91.17835 | 38364 ft | 435 kts | 275° |
| 2026-04-22 12:35 | -31.83234 | -91.24804 | 38361 ft | 434 kts | 275° |
| 2026-04-22 12:35 | -31.82075 | -91.31771 | 38364 ft | 434 kts | 275° |
| 2026-04-22 12:36 | -31.80915 | -91.38726 | 38373 ft | 434 kts | 275° |
| 2026-04-22 12:36 | -31.79750 | -91.45679 | 38372 ft | 433 kts | 275° |
| 2026-04-22 12:37 | -31.78583 | -91.52624 | 38356 ft | 433 kts | 275° |
| 2026-04-22 12:37 | -31.77413 | -91.59561 | 38362 ft | 432 kts | 275° |
| 2026-04-22 12:38 | -31.76241 | -91.66491 | 38368 ft | 432 kts | 275° |
| 2026-04-22 12:38 | -31.75064 | -91.73419 | 38365 ft | 433 kts | 275° |
| 2026-04-22 12:39 | -31.73291 | -91.83816 | 38371 ft | 433 kts | 275° |
| 2026-04-22 12:40 | -31.72104 | -91.90749 | 38367 ft | 433 kts | 276° |
| 2026-04-22 12:40 | -31.70914 | -91.97674 | 38370 ft | 432 kts | 276° |
| 2026-04-22 12:41 | -31.69722 | -92.04585 | 38367 ft | 432 kts | 276° |
| 2026-04-22 12:41 | -31.68527 | -92.11491 | 38363 ft | 431 kts | 276° |
| 2026-04-22 12:42 | -31.67330 | -92.18383 | 38366 ft | 431 kts | 276° |
| 2026-04-22 12:42 | -31.66139 | -92.25225 | 38367 ft | 430 kts | 276° |
| 2026-04-22 12:43 | -31.64937 | -92.32102 | 38361 ft | 430 kts | 276° |
| 2026-04-22 12:43 | -31.63732 | -92.38972 | 38367 ft | 429 kts | 276° |
| 2026-04-22 12:44 | -31.62526 | -92.45830 | 38366 ft | 429 kts | 276° |
| 2026-04-22 12:44 | -31.61317 | -92.52681 | 38366 ft | 429 kts | 276° |
| 2026-04-22 12:45 | -31.60104 | -92.59529 | 38364 ft | 429 kts | 276° |
| 2026-04-22 12:45 | -31.58888 | -92.66374 | 38364 ft | 429 kts | 276° |
| 2026-04-22 12:46 | -31.57668 | -92.73218 | 38356 ft | 428 kts | 276° |
| 2026-04-22 12:46 | -31.56446 | -92.80053 | 38364 ft | 428 kts | 276° |
| 2026-04-22 12:47 | -31.55219 | -92.86893 | 38370 ft | 428 kts | 276° |
| 2026-04-22 12:47 | -31.53989 | -92.93729 | 38367 ft | 429 kts | 276° |
| 2026-04-22 12:48 | -31.52754 | -93.00569 | 38366 ft | 429 kts | 276° |
| 2026-04-22 12:48 | -31.51515 | -93.07407 | 38354 ft | 429 kts | 277° |
| 2026-04-22 12:49 | -31.50272 | -93.14245 | 38365 ft | 429 kts | 277° |
| 2026-04-22 12:49 | -31.49027 | -93.21076 | 38367 ft | 429 kts | 277° |
| 2026-04-22 12:50 | -31.47778 | -93.27908 | 38336 ft | 429 kts | 277° |
| 2026-04-22 12:50 | -31.46526 | -93.34732 | 38357 ft | 429 kts | 277° |
| 2026-04-22 12:51 | -31.45269 | -93.41564 | 38360 ft | 429 kts | 277° |
| 2026-04-22 12:51 | -31.44008 | -93.48394 | 38358 ft | 429 kts | 277° |
| 2026-04-22 12:52 | -31.42742 | -93.55232 | 38360 ft | 430 kts | 277° |
| 2026-04-22 12:52 | -31.41471 | -93.62070 | 38358 ft | 430 kts | 277° |
| 2026-04-22 12:53 | -31.40205 | -93.68864 | 38358 ft | 430 kts | 277° |
| 2026-04-22 12:53 | -31.38926 | -93.75706 | 38359 ft | 430 kts | 277° |
| 2026-04-22 12:54 | -31.37644 | -93.82544 | 38334 ft | 430 kts | 277° |
| 2026-04-22 12:54 | -31.36358 | -93.89382 | 38356 ft | 430 kts | 277° |
| 2026-04-22 12:55 | -31.35067 | -93.96222 | 38361 ft | 431 kts | 277° |
| 2026-04-22 12:55 | -31.33771 | -94.03069 | 38359 ft | 431 kts | 277° |
| 2026-04-22 12:56 | -31.32470 | -94.09924 | 38358 ft | 432 kts | 277° |
| 2026-04-22 12:56 | -31.31164 | -94.16780 | 38354 ft | 432 kts | 277° |
| 2026-04-22 12:57 | -31.29854 | -94.23641 | 38348 ft | 432 kts | 278° |
| 2026-04-22 12:57 | -31.28538 | -94.30507 | 38355 ft | 433 kts | 278° |
| 2026-04-22 12:58 | -31.27217 | -94.37381 | 38353 ft | 434 kts | 278° |
| 2026-04-22 12:58 | -31.25891 | -94.44257 | 38354 ft | 434 kts | 278° |
| 2026-04-22 12:59 | -31.24561 | -94.51140 | 38354 ft | 434 kts | 278° |
| 2026-04-22 12:59 | -31.23227 | -94.58017 | 38331 ft | 434 kts | 278° |
| 2026-04-22 13:00 | -31.21887 | -94.64904 | 38352 ft | 435 kts | 278° |
| 2026-04-22 13:00 | -31.20543 | -94.71793 | 38360 ft | 435 kts | 278° |
| 2026-04-22 13:01 | -31.19195 | -94.78684 | 38355 ft | 435 kts | 278° |
| 2026-04-22 13:01 | -31.17851 | -94.85533 | 38351 ft | 436 kts | 278° |
| 2026-04-22 13:02 | -31.16493 | -94.92433 | 38349 ft | 436 kts | 278° |
| 2026-04-22 13:02 | -31.15131 | -94.99337 | 38348 ft | 436 kts | 278° |
| 2026-04-22 13:03 | -31.13747 | -95.06235 | 38353 ft | 437 kts | 279° |
| 2026-04-22 13:03 | -31.12343 | -95.13140 | 38343 ft | 437 kts | 279° |
| 2026-04-22 13:04 | -31.10936 | -95.20043 | 38337 ft | 438 kts | 279° |
| 2026-04-22 13:04 | -31.09526 | -95.26954 | 38349 ft | 438 kts | 279° |
| 2026-04-22 13:05 | -31.08113 | -95.33865 | 38328 ft | 438 kts | 279° |
| 2026-04-22 13:05 | -31.06695 | -95.40784 | 38343 ft | 439 kts | 279° |
| 2026-04-22 13:06 | -31.05273 | -95.47704 | 38351 ft | 439 kts | 279° |
| 2026-04-22 13:06 | -31.03844 | -95.54635 | 38355 ft | 440 kts | 279° |
| 2026-04-22 13:07 | -31.02410 | -95.61571 | 38343 ft | 440 kts | 279° |
| 2026-04-22 13:07 | -31.00971 | -95.68509 | 38345 ft | 440 kts | 279° |
| 2026-04-22 13:08 | -30.99527 | -95.75452 | 38336 ft | 441 kts | 279° |
| 2026-04-22 13:08 | -30.98078 | -95.82397 | 38347 ft | 441 kts | 279° |
| 2026-04-22 13:09 | -30.96626 | -95.89339 | 38348 ft | 442 kts | 279° |
| 2026-04-22 13:09 | -30.95167 | -95.96297 | 38343 ft | 442 kts | 279° |
| 2026-04-22 13:10 | -30.93703 | -96.03254 | 38342 ft | 442 kts | 279° |
| 2026-04-22 13:10 | -30.92237 | -96.10205 | 38331 ft | 442 kts | 279° |
| 2026-04-22 13:11 | -30.90765 | -96.17163 | 38347 ft | 443 kts | 280° |
| 2026-04-22 13:11 | -30.89288 | -96.24125 | 38340 ft | 443 kts | 280° |
| 2026-04-22 13:12 | -30.87806 | -96.31089 | 38339 ft | 443 kts | 280° |
| 2026-04-22 13:12 | -30.86321 | -96.38048 | 38343 ft | 443 kts | 280° |
| 2026-04-22 13:13 | -30.84830 | -96.45018 | 38340 ft | 444 kts | 280° |
| 2026-04-22 13:13 | -30.83334 | -96.51989 | 38334 ft | 444 kts | 280° |
| 2026-04-22 13:14 | -30.81835 | -96.58954 | 38342 ft | 444 kts | 280° |
| 2026-04-22 13:14 | -30.80331 | -96.65927 | 38341 ft | 445 kts | 280° |
| 2026-04-22 13:15 | -30.78820 | -96.72910 | 38326 ft | 445 kts | 280° |
| 2026-04-22 13:15 | -30.77307 | -96.79884 | 38338 ft | 445 kts | 280° |
| 2026-04-22 13:16 | -30.75788 | -96.86862 | 38326 ft | 445 kts | 280° |
| 2026-04-22 13:16 | -30.74266 | -96.93840 | 38339 ft | 446 kts | 281° |
| 2026-04-22 13:17 | -30.72748 | -97.00776 | 38338 ft | 446 kts | 281° |
| 2026-04-22 13:17 | -30.71216 | -97.07759 | 38340 ft | 446 kts | 281° |
| 2026-04-22 13:18 | -30.69680 | -97.14742 | 38335 ft | 446 kts | 281° |
| 2026-04-22 13:18 | -30.68138 | -97.21730 | 38341 ft | 446 kts | 281° |
| 2026-04-22 13:19 | -30.66593 | -97.28716 | 38336 ft | 447 kts | 281° |
| 2026-04-22 13:19 | -30.65044 | -97.35699 | 38339 ft | 447 kts | 281° |
| 2026-04-22 13:20 | -30.63753 | -97.41502 | 38329 ft | 446 kts | 281° |
| 2026-04-22 13:20 | -30.62198 | -97.48477 | 38326 ft | 446 kts | 281° |
| 2026-04-22 13:21 | -30.60639 | -97.55454 | 38335 ft | 446 kts | 281° |
| 2026-04-22 13:21 | -30.59077 | -97.62423 | 38324 ft | 446 kts | 281° |
| 2026-04-22 13:22 | -30.57510 | -97.69395 | 38330 ft | 447 kts | 281° |
| 2026-04-22 13:22 | -30.55937 | -97.76375 | 38323 ft | 447 kts | 281° |
| 2026-04-22 13:23 | -30.54361 | -97.83349 | 38324 ft | 447 kts | 281° |
| 2026-04-22 13:23 | -30.52779 | -97.90332 | 38324 ft | 447 kts | 281° |
| 2026-04-22 13:24 | -30.51194 | -97.97312 | 38320 ft | 448 kts | 281° |
| 2026-04-22 13:24 | -30.49602 | -98.04299 | 38321 ft | 448 kts | 281° |
| 2026-04-22 13:25 | -30.48007 | -98.11287 | 38324 ft | 449 kts | 281° |
| 2026-04-22 13:25 | -30.46405 | -98.18280 | 38324 ft | 449 kts | 281° |
| 2026-04-22 13:26 | -30.44799 | -98.25276 | 38326 ft | 449 kts | 281° |
| 2026-04-22 13:26 | -30.43188 | -98.32273 | 38327 ft | 450 kts | 281° |
| 2026-04-22 13:27 | -30.41572 | -98.39273 | 38320 ft | 450 kts | 281° |
| 2026-04-22 13:27 | -30.39951 | -98.46278 | 38320 ft | 450 kts | 282° |
| 2026-04-22 13:28 | -30.38337 | -98.53233 | 38322 ft | 450 kts | 282° |
| 2026-04-22 13:28 | -30.36708 | -98.60237 | 38324 ft | 451 kts | 282° |
| 2026-04-22 13:29 | -30.35073 | -98.67244 | 38323 ft | 451 kts | 282° |
| 2026-04-22 13:29 | -30.33433 | -98.74258 | 38313 ft | 451 kts | 282° |
| 2026-04-22 13:30 | -30.31789 | -98.81269 | 38320 ft | 451 kts | 282° |
| 2026-04-22 13:30 | -30.30141 | -98.88281 | 38312 ft | 452 kts | 282° |
| 2026-04-22 13:31 | -30.28488 | -98.95294 | 38315 ft | 452 kts | 282° |
| 2026-04-22 13:31 | -30.26830 | -99.02309 | 38313 ft | 452 kts | 282° |
| 2026-04-22 13:32 | -30.25168 | -99.09322 | 38306 ft | 452 kts | 283° |
| 2026-04-22 13:32 | -30.23502 | -99.16336 | 38320 ft | 452 kts | 283° |
| 2026-04-22 13:33 | -30.21831 | -99.23352 | 38312 ft | 453 kts | 283° |
| 2026-04-22 13:33 | -30.20155 | -99.30371 | 38317 ft | 453 kts | 283° |
| 2026-04-22 13:34 | -30.18475 | -99.37391 | 38313 ft | 453 kts | 283° |
| 2026-04-22 13:34 | -30.16790 | -99.44412 | 38313 ft | 453 kts | 283° |
| 2026-04-22 13:35 | -30.15102 | -99.51427 | 38306 ft | 453 kts | 283° |
| 2026-04-22 13:35 | -30.13409 | -99.58445 | 38311 ft | 453 kts | 283° |
| 2026-04-22 13:36 | -30.11713 | -99.65458 | 38309 ft | 453 kts | 283° |
| 2026-04-22 13:36 | -30.10014 | -99.72467 | 38307 ft | 453 kts | 283° |
| 2026-04-22 13:37 | -30.08311 | -99.79476 | 38303 ft | 453 kts | 283° |
| 2026-04-22 13:37 | -30.06604 | -99.86483 | 38297 ft | 453 kts | 283° |
| 2026-04-22 13:38 | -30.04895 | -99.93484 | 38305 ft | 453 kts | 283° |
| 2026-04-22 13:38 | -30.02334 | -100.03947 | 38300 ft | 454 kts | 283° |
| 2026-04-22 13:39 | -30.00624 | -100.10951 | 38291 ft | 454 kts | 283° |
| 2026-04-22 13:39 | -29.98911 | -100.17958 | 38301 ft | 454 kts | 283° |
| 2026-04-22 13:40 | -29.97193 | -100.24967 | 38298 ft | 455 kts | 284° |
| 2026-04-22 13:40 | -29.95467 | -100.31987 | 38304 ft | 455 kts | 284° |
| 2026-04-22 13:41 | -29.93734 | -100.39017 | 38299 ft | 456 kts | 284° |
| 2026-04-22 13:41 | -29.91996 | -100.46054 | 38300 ft | 457 kts | 284° |
| 2026-04-22 13:42 | -29.90252 | -100.53094 | 38300 ft | 457 kts | 284° |
| 2026-04-22 13:42 | -29.88502 | -100.60140 | 38290 ft | 457 kts | 284° |
| 2026-04-22 13:43 | -29.86750 | -100.67177 | 38301 ft | 457 kts | 284° |
| 2026-04-22 13:43 | -29.84992 | -100.74223 | 38298 ft | 457 kts | 284° |
| 2026-04-22 13:44 | -29.83231 | -100.81264 | 38293 ft | 457 kts | 284° |
| 2026-04-22 13:44 | -29.81466 | -100.88302 | 38289 ft | 457 kts | 284° |
| 2026-04-22 13:45 | -29.79699 | -100.95330 | 38287 ft | 457 kts | 284° |
| 2026-04-22 13:45 | -29.77929 | -101.02352 | 38288 ft | 457 kts | 284° |
| 2026-04-22 13:46 | -29.76156 | -101.09368 | 38291 ft | 457 kts | 284° |
| 2026-04-22 13:46 | -29.74379 | -101.16384 | 38290 ft | 456 kts | 284° |
| 2026-04-22 13:47 | -29.72600 | -101.23392 | 38290 ft | 456 kts | 284° |
| 2026-04-22 13:47 | -29.70818 | -101.30397 | 38294 ft | 456 kts | 284° |
| 2026-04-22 13:48 | -29.69031 | -101.37401 | 38291 ft | 457 kts | 284° |
| 2026-04-22 13:48 | -29.67238 | -101.44411 | 38290 ft | 457 kts | 284° |
| 2026-04-22 13:49 | -29.65441 | -101.51423 | 38290 ft | 457 kts | 284° |
| 2026-04-22 13:49 | -29.63650 | -101.58393 | 38286 ft | 458 kts | 284° |
| 2026-04-22 13:50 | -29.61842 | -101.65413 | 38290 ft | 458 kts | 284° |
| 2026-04-22 13:50 | -29.60029 | -101.72432 | 38289 ft | 458 kts | 285° |
| 2026-04-22 13:51 | -29.58212 | -101.79453 | 38276 ft | 459 kts | 285° |
| 2026-04-22 13:51 | -29.56388 | -101.86486 | 38291 ft | 460 kts | 285° |
| 2026-04-22 13:52 | -29.54556 | -101.93530 | 38281 ft | 461 kts | 285° |
| 2026-04-22 13:52 | -29.52718 | -102.00582 | 38284 ft | 462 kts | 285° |
| 2026-04-22 13:53 | -29.50871 | -102.07650 | 38281 ft | 462 kts | 285° |
| 2026-04-22 13:53 | -29.49019 | -102.14722 | 38282 ft | 463 kts | 285° |
| 2026-04-22 13:54 | -29.47161 | -102.21796 | 38284 ft | 463 kts | 285° |
| 2026-04-22 13:54 | -29.45299 | -102.28871 | 38282 ft | 463 kts | 285° |
| 2026-04-22 13:55 | -29.43434 | -102.35940 | 38281 ft | 463 kts | 285° |
| 2026-04-22 13:55 | -29.41567 | -102.43004 | 38274 ft | 463 kts | 285° |
| 2026-04-22 13:56 | -29.39697 | -102.50058 | 38281 ft | 462 kts | 285° |
| 2026-04-22 13:56 | -29.37824 | -102.57107 | 38279 ft | 462 kts | 285° |
| 2026-04-22 13:57 | -29.35947 | -102.64155 | 38283 ft | 462 kts | 285° |
| 2026-04-22 13:57 | -29.34077 | -102.71161 | 38283 ft | 462 kts | 285° |
| 2026-04-22 13:58 | -29.32182 | -102.78245 | 38276 ft | 462 kts | 285° |
| 2026-04-22 13:58 | -29.30305 | -102.85242 | 38281 ft | 462 kts | 285° |
| 2026-04-22 13:59 | -29.28415 | -102.92276 | 38280 ft | 462 kts | 285° |
| 2026-04-22 13:59 | -29.26519 | -102.99312 | 38280 ft | 462 kts | 285° |
| 2026-04-22 14:00 | -29.24620 | -103.06344 | 38286 ft | 462 kts | 285° |
| 2026-04-22 14:00 | -29.22716 | -103.13379 | 38284 ft | 462 kts | 285° |
| 2026-04-22 14:01 | -29.20810 | -103.20407 | 38282 ft | 462 kts | 285° |
| 2026-04-22 14:01 | -29.18899 | -103.27433 | 38284 ft | 462 kts | 286° |
| 2026-04-22 14:02 | -29.16985 | -103.34455 | 38282 ft | 462 kts | 286° |
| 2026-04-22 14:02 | -29.15068 | -103.41475 | 38284 ft | 462 kts | 286° |
| 2026-04-22 14:03 | -29.13145 | -103.48499 | 38278 ft | 463 kts | 286° |
| 2026-04-22 14:03 | -29.11216 | -103.55528 | 38284 ft | 463 kts | 286° |
| 2026-04-22 14:04 | -29.09280 | -103.62566 | 38286 ft | 464 kts | 286° |
| 2026-04-22 14:04 | -29.07341 | -103.69603 | 38283 ft | 465 kts | 286° |
| 2026-04-22 14:05 | -29.05394 | -103.76650 | 38282 ft | 465 kts | 286° |
| 2026-04-22 14:06 | -29.02794 | -103.86034 | 38279 ft | 465 kts | 286° |
| 2026-04-22 14:06 | -29.00837 | -103.93080 | 38285 ft | 465 kts | 286° |
| 2026-04-22 14:07 | -28.98876 | -104.00124 | 38288 ft | 465 kts | 286° |
| 2026-04-22 14:07 | -28.96914 | -104.07159 | 38290 ft | 465 kts | 286° |
| 2026-04-22 14:08 | -28.94948 | -104.14187 | 38279 ft | 465 kts | 286° |
| 2026-04-22 14:08 | -28.92980 | -104.21210 | 38281 ft | 464 kts | 286° |
| 2026-04-22 14:09 | -28.91009 | -104.28228 | 38287 ft | 464 kts | 286° |
| 2026-04-22 14:09 | -28.89037 | -104.35232 | 38287 ft | 463 kts | 286° |
| 2026-04-22 14:10 | -28.87064 | -104.42228 | 38283 ft | 463 kts | 286° |
| 2026-04-22 14:10 | -28.85088 | -104.49216 | 38275 ft | 463 kts | 286° |
| 2026-04-22 14:11 | -28.83108 | -104.56203 | 38280 ft | 463 kts | 286° |
| 2026-04-22 14:11 | -28.81126 | -104.63181 | 38280 ft | 463 kts | 286° |
| 2026-04-22 14:12 | -28.79140 | -104.70160 | 38284 ft | 463 kts | 286° |
| 2026-04-22 14:12 | -28.77151 | -104.77133 | 38279 ft | 463 kts | 286° |
| 2026-04-22 14:13 | -28.75156 | -104.84113 | 38281 ft | 463 kts | 286° |
| 2026-04-22 14:13 | -28.73157 | -104.91092 | 38284 ft | 463 kts | 286° |
| 2026-04-22 14:14 | -28.71153 | -104.98069 | 38283 ft | 463 kts | 286° |
| 2026-04-22 14:14 | -28.69163 | -105.04989 | 38277 ft | 463 kts | 286° |
| 2026-04-22 14:15 | -28.67153 | -105.11959 | 38278 ft | 463 kts | 286° |
| 2026-04-22 14:15 | -28.65139 | -105.18929 | 38278 ft | 464 kts | 286° |
| 2026-04-22 14:16 | -28.63117 | -105.25911 | 38271 ft | 464 kts | 286° |
| 2026-04-22 14:16 | -28.61091 | -105.32895 | 38286 ft | 465 kts | 286° |
| 2026-04-22 14:17 | -28.59058 | -105.39883 | 38273 ft | 465 kts | 286° |
| 2026-04-22 14:17 | -28.57021 | -105.46874 | 38274 ft | 466 kts | 286° |
| 2026-04-22 14:18 | -28.54979 | -105.53864 | 38280 ft | 466 kts | 286° |
| 2026-04-22 14:18 | -28.52934 | -105.60851 | 38281 ft | 466 kts | 286° |
| 2026-04-22 14:19 | -28.50886 | -105.67833 | 38270 ft | 466 kts | 286° |
| 2026-04-22 14:19 | -28.48833 | -105.74817 | 38274 ft | 466 kts | 286° |
| 2026-04-22 14:20 | -28.45748 | -105.85287 | 38271 ft | 466 kts | 286° |
| 2026-04-22 14:20 | -28.43686 | -105.92269 | 38272 ft | 466 kts | 286° |
| 2026-04-22 14:21 | -28.40617 | -106.02748 | 38272 ft | 466 kts | 285° |
| 2026-04-22 14:22 | -28.37560 | -106.13219 | 38270 ft | 466 kts | 286° |
| 2026-04-22 14:23 | -28.34492 | -106.23679 | 38272 ft | 465 kts | 286° |
| 2026-04-22 14:23 | -28.32442 | -106.30646 | 38272 ft | 465 kts | 286° |
| 2026-04-22 14:24 | -28.30389 | -106.37609 | 38264 ft | 465 kts | 286° |
| 2026-04-22 14:24 | -28.28333 | -106.44567 | 38273 ft | 465 kts | 286° |
| 2026-04-22 14:25 | -28.26274 | -106.51523 | 38272 ft | 465 kts | 286° |
| 2026-04-22 14:25 | -28.24226 | -106.58427 | 38273 ft | 465 kts | 286° |
| 2026-04-22 14:26 | -28.22158 | -106.65380 | 38269 ft | 465 kts | 286° |
| 2026-04-22 14:26 | -28.20798 | -106.69949 | 38260 ft | 465 kts | 286° |
| 2026-04-22 14:49 | -28.19996 | -106.72640 | 38143 ft | 468 kts | 287° |
| 2026-04-22 14:49 | -28.18964 | -106.76094 | 38180 ft | 456 kts | 285° |
| 2026-04-22 14:49 | -28.16920 | -106.82932 | 38272 ft | 463 kts | 285° |
| 2026-04-22 14:50 | -28.14830 | -106.89924 | 38277 ft | 472 kts | 285° |
| 2026-04-22 14:50 | -28.12712 | -106.96975 | 38270 ft | 473 kts | 286° |
| 2026-04-22 14:51 | -28.10592 | -107.04021 | 38271 ft | 472 kts | 286° |
| 2026-04-22 14:51 | -28.08474 | -107.11048 | 38268 ft | 471 kts | 285° |
| 2026-04-22 14:52 | -28.06362 | -107.18041 | 38267 ft | 469 kts | 285° |
| 2026-04-22 14:52 | -28.04253 | -107.25013 | 38268 ft | 467 kts | 285° |
| 2026-04-22 14:53 | -28.02148 | -107.31959 | 38270 ft | 466 kts | 285° |
| 2026-04-22 14:53 | -28.00041 | -107.38891 | 38266 ft | 465 kts | 285° |
| 2026-04-22 14:54 | -27.97930 | -107.45816 | 38261 ft | 466 kts | 286° |
| 2026-04-22 14:54 | -27.96173 | -107.51573 | 38266 ft | 466 kts | 286° |
| 2026-04-22 14:55 | -27.94052 | -107.58509 | 38266 ft | 467 kts | 286° |
| 2026-04-22 14:55 | -27.91924 | -107.65458 | 38268 ft | 468 kts | 286° |
| 2026-04-22 14:56 | -27.89788 | -107.72416 | 38264 ft | 469 kts | 286° |
| 2026-04-22 14:56 | -27.87647 | -107.79379 | 38254 ft | 469 kts | 286° |
| 2026-04-22 14:57 | -27.85499 | -107.86348 | 38238 ft | 470 kts | 286° |
| 2026-04-22 14:57 | -27.84413 | -107.89872 | 37437 ft | 480 kts | 286° |
| 2026-04-22 14:57 | -27.83315 | -107.93429 | 36746 ft | 478 kts | 286° |
| 2026-04-22 14:58 | -27.82220 | -107.96967 | 35968 ft | 476 kts | 286° |
| 2026-04-22 14:58 | -27.81126 | -108.00498 | 35110 ft | 477 kts | 287° |
| 2026-04-22 14:58 | -27.80029 | -108.04036 | 34202 ft | 479 kts | 287° |
| 2026-04-22 14:58 | -27.78925 | -108.07595 | 33165 ft | 481 kts | 287° |
| 2026-04-22 14:59 | -27.77818 | -108.11161 | 32160 ft | 482 kts | 287° |
| 2026-04-22 14:59 | -27.76706 | -108.14739 | 31130 ft | 484 kts | 287° |
| 2026-04-22 14:59 | -27.75592 | -108.18318 | 30333 ft | 482 kts | 287° |
| 2026-04-22 14:59 | -27.74485 | -108.21870 | 29494 ft | 477 kts | 287° |
| 2026-04-22 15:00 | -27.73389 | -108.25383 | 28735 ft | 472 kts | 287° |
| 2026-04-22 15:00 | -27.72302 | -108.28866 | 28037 ft | 467 kts | 288° |
| 2026-04-22 15:00 | -27.71230 | -108.32298 | 27349 ft | 462 kts | 288° |
| 2026-04-22 15:00 | -27.70167 | -108.35699 | 26676 ft | 457 kts | 288° |
| 2026-04-22 15:01 | -27.69113 | -108.39069 | 26022 ft | 453 kts | 288° |
| 2026-04-22 15:01 | -27.68068 | -108.42406 | 25378 ft | 449 kts | 288° |
| 2026-04-22 15:01 | -27.67016 | -108.45709 | 24714 ft | 446 kts | 289° |
| 2026-04-22 15:01 | -27.65900 | -108.48962 | 24068 ft | 443 kts | 290° |
| 2026-04-22 15:02 | -27.64754 | -108.52173 | 23346 ft | 440 kts | 291° |
| 2026-04-22 15:02 | -27.63606 | -108.55352 | 22668 ft | 435 kts | 291° |
| 2026-04-22 15:02 | -27.62487 | -108.58459 | 22030 ft | 431 kts | 290° |
| 2026-04-22 15:02 | -27.61373 | -108.61571 | 21411 ft | 426 kts | 291° |
| 2026-04-22 15:03 | -27.60273 | -108.64657 | 20815 ft | 422 kts | 290° |
| 2026-04-22 15:03 | -27.59189 | -108.67711 | 20220 ft | 418 kts | 290° |
| 2026-04-22 15:03 | -27.58113 | -108.70746 | 19631 ft | 415 kts | 290° |
| 2026-04-22 15:03 | -27.57047 | -108.73756 | 19045 ft | 412 kts | 290° |
| 2026-04-22 15:04 | -27.55985 | -108.76752 | 18435 ft | 411 kts | 290° |
| 2026-04-22 15:04 | -27.54929 | -108.79729 | 17775 ft | 408 kts | 290° |
| 2026-04-22 15:04 | -27.53877 | -108.82689 | 17165 ft | 405 kts | 290° |
| 2026-04-22 15:04 | -27.52833 | -108.85628 | 16566 ft | 402 kts | 290° |
| 2026-04-22 15:05 | -27.51795 | -108.88542 | 15984 ft | 400 kts | 290° |
| 2026-04-22 15:05 | -27.50764 | -108.91440 | 15404 ft | 398 kts | 290° |
| 2026-04-22 15:05 | -27.49736 | -108.94324 | 14820 ft | 396 kts | 290° |
| 2026-04-22 15:05 | -27.48711 | -108.97199 | 14230 ft | 395 kts | 290° |
| 2026-04-22 15:06 | -27.47688 | -109.00066 | 13600 ft | 394 kts | 290° |
| 2026-04-22 15:06 | -27.46668 | -109.02921 | 12995 ft | 392 kts | 290° |
| 2026-04-22 15:06 | -27.45655 | -109.05756 | 12418 ft | 389 kts | 290° |
| 2026-04-22 15:06 | -27.44649 | -109.08569 | 11919 ft | 385 kts | 290° |
| 2026-04-22 15:07 | -27.43649 | -109.11363 | 11362 ft | 383 kts | 291° |
| 2026-04-22 15:07 | -27.42666 | -109.14106 | 11100 ft | 373 kts | 291° |
| 2026-04-22 15:07 | -27.41710 | -109.16770 | 10918 ft | 362 kts | 291° |
| 2026-04-22 15:07 | -27.40779 | -109.19366 | 10627 ft | 355 kts | 291° |
| 2026-04-22 15:08 | -27.39865 | -109.21912 | 10399 ft | 347 kts | 291° |
| 2026-04-22 15:08 | -27.38975 | -109.24393 | 10231 ft | 337 kts | 291° |
| 2026-04-22 15:08 | -27.38112 | -109.26793 | 10060 ft | 320 kts | 291° |
| 2026-04-22 15:08 | -27.37303 | -109.29041 | 9825 ft | 302 kts | 291° |
| 2026-04-22 15:09 | -27.36532 | -109.31148 | 9551 ft | 284 kts | 294° |
| 2026-04-22 15:09 | -27.35686 | -109.33109 | 9207 ft | 273 kts | 297° |
| 2026-04-22 15:09 | -27.34814 | -109.34997 | 8916 ft | 274 kts | 297° |
| 2026-04-22 15:09 | -27.33917 | -109.36926 | 8614 ft | 281 kts | 297° |
| 2026-04-22 15:10 | -27.33011 | -109.38883 | 8286 ft | 281 kts | 298° |
| 2026-04-22 15:10 | -27.32119 | -109.40821 | 7969 ft | 277 kts | 298° |
| 2026-04-22 15:10 | -27.31245 | -109.42727 | 7661 ft | 272 kts | 298° |
| 2026-04-22 15:10 | -27.30383 | -109.44612 | 7358 ft | 271 kts | 298° |
| 2026-04-22 15:11 | -27.29520 | -109.46503 | 7076 ft | 273 kts | 298° |
| 2026-04-22 15:11 | -27.28653 | -109.48400 | 6796 ft | 273 kts | 299° |
| 2026-04-22 15:11 | -27.27788 | -109.50295 | 6495 ft | 272 kts | 299° |
| 2026-04-22 15:11 | -27.26925 | -109.52186 | 6182 ft | 271 kts | 298° |
| 2026-04-22 15:12 | -27.26069 | -109.54063 | 5880 ft | 269 kts | 300° |
| 2026-04-22 15:12 | -27.25231 | -109.55899 | 5588 ft | 266 kts | 300° |
| 2026-04-22 15:12 | -27.24390 | -109.57740 | 5297 ft | 264 kts | 299° |
| 2026-04-22 15:12 | -27.23546 | -109.59589 | 4986 ft | 261 kts | 299° |
| 2026-04-22 15:13 | -27.22718 | -109.61396 | 4714 ft | 259 kts | 299° |
| 2026-04-22 15:13 | -27.21899 | -109.63188 | 4415 ft | 256 kts | 299° |
| 2026-04-22 15:13 | -27.20867 | -109.64747 | 4129 ft | 248 kts | 327° |
| 2026-04-22 15:13 | -27.19316 | -109.65469 | 3894 ft | 246 kts | 356° |
| 2026-04-22 15:14 | -27.17589 | -109.65289 | 3640 ft | 248 kts | 18° |
| 2026-04-22 15:14 | -27.16061 | -109.64469 | 3380 ft | 247 kts | 31° |
| 2026-04-22 15:14 | -27.14633 | -109.63474 | 3238 ft | 236 kts | 32° |
| 2026-04-22 15:14 | -27.13278 | -109.62524 | 3127 ft | 224 kts | 32° |
| 2026-04-22 15:15 | -27.11981 | -109.61624 | 3001 ft | 213 kts | 31° |
| 2026-04-22 15:15 | -27.10761 | -109.60787 | 2903 ft | 198 kts | 31° |
| 2026-04-22 15:15 | -27.09763 | -109.59838 | 2738 ft | 182 kts | 58° |
| 2026-04-22 15:15 | -27.09550 | -109.58531 | 2605 ft | 167 kts | 96° |
| 2026-04-22 15:16 | -27.09821 | -109.57213 | 2605 ft | 176 kts | 101° |
| 2026-04-22 15:16 | -27.10231 | -109.55907 | 2308 ft | 174 kts | 108° |
| 2026-04-22 15:16 | -27.10681 | -109.54659 | 1977 ft | 172 kts | 110° |
| 2026-04-22 15:16 | -27.11203 | -109.53472 | 1842 ft | 170 kts | 114° |
| 2026-04-22 15:17 | -27.11757 | -109.52299 | 1766 ft | 168 kts | 112° |
| 2026-04-22 15:17 | -27.12314 | -109.51120 | 1553 ft | 173 kts | 112° |
| 2026-04-22 15:17 | -27.12876 | -109.49933 | 1175 ft | 173 kts | 115° |
| 2026-04-22 15:17 | -27.13421 | -109.48785 | 973 ft | 158 kts | 114° |
| 2026-04-22 15:18 | -27.13907 | -109.47764 | 819 ft | 140 kts | 111° |
| 2026-04-22 15:18 | -27.14365 | -109.46791 | 669 ft | 141 kts | 111° |
| 2026-04-22 15:18 | -27.14828 | -109.45817 | 498 ft | 142 kts | 115° |
| 2026-04-22 15:18 | -27.15271 | -109.44856 | 361 ft | 139 kts | 114° |
| 2026-04-22 15:19 | -27.15712 | -109.43883 | 232 ft | 142 kts | 115° |
| 2026-04-22 15:19 | -27.16156 | -109.42897 | 165 ft | 135 kts | 115° |
| 2026-04-22 15:19 | -27.16517 | -109.42103 | 162 ft | 88 kts | 117° |
| 2026-04-22 15:19 | -27.16713 | -109.41673 | 163 ft | 36 kts | 117° |
| 2026-04-22 15:20 | -27.16789 | -109.41508 | 162 ft | 36 kts | 117° |
| 2026-04-22 15:20 | -27.16950 | -109.41152 | 160 ft | 42 kts | 117° |
| 2026-04-22 15:20 | -27.17085 | -109.40855 | 161 ft | 26 kts | 113° |
| 2026-04-22 15:20 | -27.17098 | -109.40717 | 160 ft | 8 kts | 127° |
| 2026-04-22 15:21 | -27.17139 | -109.40736 | 161 ft | 8 kts | 257° |
| 2026-04-22 15:21 | -27.17105 | -109.40814 | 161 ft | 16 kts | 298° |
| 2026-04-22 15:21 | -27.17042 | -109.40951 | 161 ft | 24 kts | 297° |
| 2026-04-22 15:21 | -27.16954 | -109.41145 | 160 ft | 32 kts | 297° |
| 2026-04-22 15:22 | -27.16843 | -109.41389 | 162 ft | 38 kts | 297° |
| 2026-04-22 15:22 | -27.16712 | -109.41676 | 163 ft | 44 kts | 297° |
| 2026-04-22 15:22 | -27.16566 | -109.41995 | 163 ft | 47 kts | 297° |
| 2026-04-22 15:22 | -27.16415 | -109.42326 | 161 ft | 48 kts | 297° |
| 2026-04-22 15:23 | -27.16270 | -109.42644 | 161 ft | 35 kts | 297° |
| 2026-04-22 15:23 | -27.16180 | -109.42844 | 162 ft | 16 kts | 296° |
| 2026-04-22 15:23 | -27.16112 | -109.42875 | 161 ft | 13 kts | 13° |
| 2026-04-22 15:23 | -27.16050 | -109.42841 | 155 ft | 7 kts | 26° |
| 2026-04-22 15:24 | -27.16010 | -109.42853 | 154 ft | 6 kts | 312° |
| 2026-04-22 15:24 | -27.16001 | -109.42868 | 154 ft | 0 kts | 303° |
| 2026-04-22 15:24 | -27.16001 | -109.42869 | 154 ft | 0 kts | 303° |